createdAt,value
2023-05-05T00:01:50.470Z,100684.30
2023-05-05T00:05:57.390Z,100685.88
2023-05-05T00:09:58.719Z,100680.11
2023-05-05T00:14:00.436Z,100675.09
2023-05-05T00:18:02.040Z,100672.48
2023-05-05T00:22:03.464Z,100666.78
2023-05-05T00:26:04.951Z,100673.33
2023-05-05T00:30:07.083Z,100672.20
2023-05-05T00:34:08.610Z,100668.69
2023-05-05T00:38:10.008Z,100663.52
2023-05-05T00:42:11.481Z,100663.81
2023-05-05T00:46:26.299Z,100656.66
2023-05-05T00:50:29.571Z,100653.14
2023-05-05T00:54:31.060Z,100654.44
2023-05-05T00:58:32.875Z,100651.69
2023-05-05T01:02:34.912Z,100652.98
2023-05-05T01:06:39.347Z,100650.55
2023-05-05T01:10:54.414Z,100645.75
2023-05-05T01:15:22.110Z,100650.13
2023-05-05T01:19:34.864Z,100643.25
2023-05-05T01:24:00.279Z,100642.75
2023-05-05T01:28:31.202Z,100644.49
2023-05-05T01:32:38.051Z,100646.52
2023-05-05T01:36:43.847Z,100647.55
2023-05-05T01:40:49.363Z,100648.46
2023-05-05T01:44:52.297Z,100646.93
2023-05-05T01:48:56.140Z,100644.33
2023-05-05T01:52:58.472Z,100641.63
2023-05-05T01:57:04.638Z,100632.08
2023-05-05T02:01:06.197Z,100629.36
2023-05-05T02:05:08.880Z,100628.96
2023-05-05T02:09:12.447Z,100620.61
2023-05-05T02:13:41.414Z,100619.08
2023-05-05T02:17:44.703Z,100615.35
2023-05-05T02:21:46.327Z,100617.85
2023-05-05T02:25:55.080Z,100614.77
2023-05-05T02:30:01.276Z,100612.95
2023-05-05T02:34:06.556Z,100614.87
2023-05-05T02:38:17.800Z,100617.85
2023-05-05T02:42:21.545Z,100622.58
2023-05-05T02:46:22.936Z,100625.66
2023-05-05T02:50:24.664Z,100629.98
2023-05-05T02:54:27.625Z,100630.11
2023-05-05T02:58:34.415Z,100635.96
2023-05-05T03:03:29.640Z,100635.56
2023-05-05T03:07:37.907Z,100641.89
2023-05-05T03:12:04.074Z,100639.88
2023-05-05T03:16:07.699Z,100640.80
2023-05-05T03:20:11.665Z,100639.94
2023-05-05T03:24:17.577Z,100640.66
2023-05-05T03:28:19.034Z,100635.71
2023-05-05T03:32:20.830Z,100637.59
2023-05-05T03:36:22.290Z,100639.64
2023-05-05T03:40:36.181Z,100641.86
2023-05-05T03:44:56.594Z,100642.66
2023-05-05T03:48:58.078Z,100637.80
2023-05-05T03:52:59.457Z,100630.45
2023-05-05T03:57:01.774Z,100634.64
2023-05-05T04:01:03.398Z,100633.45
2023-05-05T04:05:04.910Z,100634.83
2023-05-05T04:09:06.560Z,100633.86
2023-05-05T04:13:08.121Z,100637.21
2023-05-05T04:17:09.803Z,100637.48
2023-05-05T04:21:11.319Z,100646.71
2023-05-05T04:25:17.870Z,100653.81
2023-05-05T04:29:19.274Z,100648.90
2023-05-05T04:33:20.681Z,100647.27
2023-05-05T04:37:22.070Z,100644.58
2023-05-05T04:41:23.458Z,100640.91
2023-05-05T04:45:26.092Z,100641.11
2023-05-05T04:49:31.910Z,100644.31
2023-05-05T04:53:33.367Z,100647.54
2023-05-05T04:57:35.013Z,100646.77
2023-05-05T05:01:38.576Z,100650.40
2023-05-05T05:05:40.131Z,100651.80
2023-05-05T05:09:43.624Z,100656.77
2023-05-05T05:13:45.641Z,100666.58
2023-05-05T05:17:47.032Z,100670.77
2023-05-05T05:21:53.880Z,100675.60
2023-05-05T05:25:55.947Z,100678.41
2023-05-05T05:29:57.390Z,100680.60
2023-05-05T05:34:13.083Z,100682.24
2023-05-05T05:38:14.552Z,100685.20
2023-05-05T05:42:15.977Z,100683.08
2023-05-05T05:46:40.044Z,100682.45
2023-05-05T05:50:41.860Z,100688.29
2023-05-05T05:54:44.006Z,100689.97
2023-05-05T05:58:47.911Z,100681.78
2023-05-05T06:02:50.892Z,100688.09
2023-05-05T06:06:52.587Z,100691.70
2023-05-05T06:10:54.494Z,100688.50
2023-05-05T06:14:56.157Z,100690.48
2023-05-05T06:18:57.986Z,100692.40
2023-05-05T06:22:59.863Z,100698.02
2023-05-05T06:27:01.920Z,100702.68
2023-05-05T06:31:03.646Z,100697.04
2023-05-05T06:35:06.555Z,100695.17
2023-05-05T06:39:08.204Z,100697.29
2023-05-05T06:43:09.761Z,100696.95
2023-05-05T06:47:11.371Z,100689.16
2023-05-05T06:51:14.901Z,100690.33
2023-05-05T06:55:17.275Z,100687.61
2023-05-05T06:59:18.989Z,100689.04
2023-05-05T07:03:20.984Z,100687.71
2023-05-05T07:07:22.837Z,100687.05
2023-05-05T07:11:24.673Z,100683.88
2023-05-05T07:15:29.259Z,100685.27
2023-05-05T07:19:31.778Z,100685.98
2023-05-05T07:23:34.262Z,100685.44
2023-05-05T07:27:36.855Z,100686.30
2023-05-05T07:31:38.682Z,100693.94
2023-05-05T07:35:40.750Z,100692.52
2023-05-05T07:39:42.833Z,100688.98
2023-05-05T07:43:44.864Z,100685.99
2023-05-05T07:47:46.892Z,100686.11
2023-05-05T07:51:49.623Z,100688.65
2023-05-05T07:55:51.241Z,100689.20
2023-05-05T07:59:52.977Z,100688.07
2023-05-05T08:03:54.674Z,100686.57
2023-05-05T08:07:56.379Z,100683.80
2023-05-05T08:11:58.142Z,100677.71
2023-05-05T08:16:00.069Z,100678.17
2023-05-05T08:20:01.817Z,100674.45
2023-05-05T08:24:03.582Z,100672.77
2023-05-05T08:28:06.088Z,100672.27
2023-05-05T08:32:08.099Z,100670.50
2023-05-05T08:36:11.009Z,100668.16
2023-05-05T08:40:13.765Z,100667.86
2023-05-05T08:44:15.745Z,100664.59
2023-05-05T08:48:27.201Z,100663.01
2023-05-05T08:52:37.870Z,100661.59
2023-05-05T08:56:41.569Z,100664.46
2023-05-05T09:00:44.776Z,100664.77
2023-05-05T09:04:46.635Z,100663.48
2023-05-05T09:08:49.092Z,100659.36
2023-05-05T09:12:51.304Z,100656.11
2023-05-05T09:16:53.657Z,100656.00
2023-05-05T09:20:56.873Z,100654.86
2023-05-05T09:25:01.277Z,100659.48
2023-05-05T09:29:03.600Z,100656.59
2023-05-05T09:33:05.962Z,100646.73
2023-05-05T09:37:07.768Z,100640.98
2023-05-05T09:41:09.854Z,100642.49
2023-05-05T09:45:17.792Z,100644.76
2023-05-05T09:49:26.169Z,100645.34
2023-05-05T09:53:38.583Z,100647.32
2023-05-05T09:57:40.500Z,100649.91
2023-05-05T10:01:43.313Z,100648.95
2023-05-05T10:05:52.220Z,100650.96
2023-05-05T10:09:53.927Z,100651.59
2023-05-05T10:13:56.084Z,100651.04
2023-05-05T10:18:07.487Z,100645.70
2023-05-05T10:22:10.891Z,100645.40
2023-05-05T10:26:14.064Z,100642.36
2023-05-05T10:30:32.230Z,100639.63
2023-05-05T10:34:49.000Z,100639.27
2023-05-05T10:38:55.787Z,100638.44
2023-05-05T10:42:58.475Z,100634.65
2023-05-05T10:47:01.719Z,100626.73
2023-05-05T10:51:39.398Z,100623.13
2023-05-05T10:55:51.275Z,100618.57
2023-05-05T10:59:53.139Z,100613.24
2023-05-05T11:04:20.460Z,100604.09
2023-05-05T11:08:26.399Z,100597.05
2023-05-05T11:12:29.426Z,100594.88
2023-05-05T11:16:49.416Z,100594.33
2023-05-05T11:20:57.291Z,100592.69
2023-05-05T11:24:59.146Z,100590.52
2023-05-05T11:29:03.409Z,100583.09
2023-05-05T11:33:30.060Z,100576.95
2023-05-05T11:37:32.163Z,100577.89
2023-05-05T11:42:12.488Z,100573.33
2023-05-05T11:46:16.348Z,100567.89
2023-05-05T11:50:20.899Z,100564.34
2023-05-05T11:54:23.035Z,100562.02
2023-05-05T11:58:24.904Z,100559.30
2023-05-05T12:02:28.918Z,100554.05
2023-05-05T12:06:33.446Z,100558.02
2023-05-05T12:10:35.347Z,100553.13
2023-05-05T12:14:46.271Z,100555.70
2023-05-05T12:19:02.366Z,100556.30
2023-05-05T12:23:04.332Z,100553.25
2023-05-05T12:27:10.314Z,100550.48
2023-05-05T12:31:12.203Z,100544.56
2023-05-05T12:35:14.206Z,100541.30
2023-05-05T12:39:16.086Z,100544.39
2023-05-05T12:43:27.740Z,100535.11
2023-05-05T12:47:31.180Z,100534.73
2023-05-05T12:51:35.422Z,100533.33
2023-05-05T12:55:39.275Z,100530.91
2023-05-05T12:59:41.009Z,100532.58
2023-05-05T13:03:42.835Z,100528.27
2023-05-05T13:07:51.470Z,100526.67
2023-05-05T13:11:54.147Z,100521.67
2023-05-05T13:15:56.094Z,100519.11
2023-05-05T13:19:57.831Z,100512.48
2023-05-05T13:24:12.474Z,100508.03
2023-05-05T13:28:21.628Z,100505.10
2023-05-05T13:32:23.522Z,100498.36
2023-05-05T13:36:26.478Z,100495.31
2023-05-05T13:40:28.115Z,100487.63
2023-05-05T13:44:29.922Z,100480.29
2023-05-05T13:48:31.833Z,100478.41
2023-05-05T13:52:33.660Z,100470.45
2023-05-05T13:56:35.411Z,100470.35
2023-05-05T14:00:37.318Z,100466.06
2023-05-05T14:04:38.937Z,100464.05
2023-05-05T14:08:41.016Z,100461.20
2023-05-05T14:12:43.156Z,100458.83
2023-05-05T14:16:46.757Z,100451.55
2023-05-05T14:20:49.568Z,100451.42
2023-05-05T14:24:51.239Z,100452.33
2023-05-05T14:28:53.013Z,100447.44
2023-05-05T14:32:54.734Z,100448.31
2023-05-05T14:36:56.649Z,100443.02
2023-05-05T14:40:58.403Z,100440.86
2023-05-05T14:45:00.562Z,100437.60
2023-05-05T14:49:02.267Z,100430.16
2023-05-05T14:53:04.197Z,100429.58
2023-05-05T14:57:06.276Z,100421.20
2023-05-05T15:01:08.138Z,100423.40
2023-05-05T15:05:10.270Z,100418.34
2023-05-05T15:09:12.844Z,100421.87
2023-05-05T15:13:14.823Z,100426.65
2023-05-05T15:17:16.853Z,100419.77
2023-05-05T15:21:18.512Z,100417.92
2023-05-05T15:25:20.668Z,100418.14
2023-05-05T15:29:22.463Z,100416.48
2023-05-05T15:33:24.314Z,100418.70
2023-05-05T15:37:28.398Z,100411.35
2023-05-05T15:41:30.414Z,100411.42
2023-05-05T15:45:32.180Z,100407.05
2023-05-05T15:49:37.175Z,100402.73
2023-05-05T15:53:38.889Z,100400.80
2023-05-05T15:57:40.818Z,100398.85
2023-05-05T16:01:42.591Z,100392.11
2023-05-05T16:05:44.463Z,100391.36
2023-05-05T16:10:07.050Z,100388.77
2023-05-05T16:14:16.068Z,100390.71
2023-05-05T16:18:17.810Z,100393.59
2023-05-05T16:22:20.509Z,100388.55
2023-05-05T16:26:22.964Z,100390.31
2023-05-05T16:30:24.761Z,100386.48
2023-05-05T16:34:26.489Z,100383.02
2023-05-05T16:38:28.283Z,100382.33
2023-05-05T16:42:30.062Z,100385.17
2023-05-05T16:46:31.860Z,100379.01
2023-05-05T16:50:33.742Z,100384.29
2023-05-05T16:54:35.534Z,100386.18
2023-05-05T16:58:37.301Z,100387.42
2023-05-05T17:02:39.149Z,100385.84
2023-05-05T17:06:41.004Z,100385.92
2023-05-05T17:10:44.114Z,100390.59
2023-05-05T17:14:45.829Z,100388.59
2023-05-05T17:18:47.579Z,100386.73
2023-05-05T17:22:49.394Z,100389.03
2023-05-05T17:26:51.388Z,100389.70
2023-05-05T17:30:53.065Z,100390.69
2023-05-05T17:34:55.753Z,100395.34
2023-05-05T17:38:57.439Z,100398.15
2023-05-05T17:42:59.114Z,100401.45
2023-05-05T17:47:02.230Z,100406.40
2023-05-05T17:51:04.020Z,100403.98
2023-05-05T17:55:06.552Z,100404.85
2023-05-05T17:59:08.424Z,100407.86
2023-05-05T18:03:10.285Z,100410.20
2023-05-05T18:07:14.014Z,100414.10
2023-05-05T18:11:15.992Z,100413.60
2023-05-05T18:15:17.670Z,100419.41
2023-05-05T18:19:21.305Z,100418.48
2023-05-05T18:23:23.036Z,100419.55
2023-05-05T18:27:26.323Z,100422.02
2023-05-05T18:31:28.108Z,100418.84
2023-05-05T18:35:29.863Z,100423.56
2023-05-05T18:39:34.425Z,100424.09
2023-05-05T18:43:37.894Z,100425.14
2023-05-05T18:47:39.590Z,100422.29
2023-05-05T18:51:41.427Z,100420.90
2023-05-05T18:55:46.628Z,100424.38
2023-05-05T18:59:48.375Z,100424.52
2023-05-05T19:03:50.344Z,100424.30
2023-05-05T19:07:52.166Z,100427.59
2023-05-05T19:11:53.987Z,100443.19
2023-05-05T19:15:56.659Z,100445.36
2023-05-05T19:19:58.219Z,100442.41
2023-05-05T19:23:59.762Z,100443.58
2023-05-05T19:28:01.537Z,100445.98
2023-05-05T19:32:03.350Z,100441.84
2023-05-05T19:36:05.252Z,100444.75
2023-05-05T19:40:08.077Z,100443.02
2023-05-05T19:44:10.121Z,100445.48
2023-05-05T19:48:11.595Z,100447.86
2023-05-05T19:52:13.332Z,100448.52
2023-05-05T19:56:16.314Z,100447.42
2023-05-05T20:00:18.928Z,100446.11
2023-05-05T20:04:20.590Z,100446.56
2023-05-05T20:08:22.195Z,100446.43
2023-05-05T20:12:23.995Z,100451.00
2023-05-05T20:16:25.836Z,100451.02
2023-05-05T20:20:27.375Z,100450.39
2023-05-05T20:24:29.206Z,100451.55
2023-05-05T20:28:31.502Z,100449.61
2023-05-05T20:32:33.085Z,100447.04
2023-05-05T20:36:34.942Z,100448.02
2023-05-05T20:40:36.671Z,100449.65
2023-05-05T20:44:39.452Z,100445.87
2023-05-05T20:48:42.880Z,100447.17
2023-05-05T20:52:45.442Z,100446.20
2023-05-05T20:56:47.085Z,100443.43
2023-05-05T21:00:49.088Z,100438.83
2023-05-05T21:04:50.649Z,100428.33
2023-05-05T21:08:52.124Z,100423.24
2023-05-05T21:12:54.094Z,100422.77
2023-05-05T21:16:55.658Z,100414.77
2023-05-05T21:20:58.226Z,100412.30
2023-05-05T21:25:13.823Z,100414.96
2023-05-05T21:29:15.336Z,100413.40
2023-05-05T21:33:16.941Z,100411.16
2023-05-05T21:37:18.628Z,100412.49
2023-05-05T21:41:20.452Z,100407.52
2023-05-05T21:45:22.062Z,100415.97
2023-05-05T21:49:23.554Z,100423.54
2023-05-05T21:53:25.100Z,100419.89
2023-05-05T21:57:26.719Z,100415.05
2023-05-05T22:01:28.369Z,100413.54
2023-05-05T22:05:30.377Z,100408.17
2023-05-05T22:09:32.030Z,100406.48
2023-05-05T22:13:33.724Z,100402.30
2023-05-05T22:17:35.635Z,100394.96
2023-05-05T22:21:37.338Z,100386.23
2023-05-05T22:25:38.912Z,100382.02
2023-05-05T22:29:40.518Z,100381.04
2023-05-05T22:33:42.013Z,100385.63
2023-05-05T22:37:43.492Z,100387.78
2023-05-05T22:41:45.105Z,100393.14
2023-05-05T22:45:46.851Z,100394.74
2023-05-05T22:49:48.553Z,100396.89
2023-05-05T22:53:50.499Z,100396.52
2023-05-05T22:57:52.207Z,100390.77
2023-05-05T23:01:53.869Z,100388.65
2023-05-05T23:05:55.466Z,100383.19
2023-05-05T23:09:57.101Z,100378.47
2023-05-05T23:13:58.872Z,100373.15
2023-05-05T23:18:00.647Z,100369.81
2023-05-05T23:22:03.473Z,100361.77
2023-05-05T23:26:05.147Z,100352.52
2023-05-05T23:30:10.118Z,100355.74
2023-05-05T23:34:12.575Z,100347.36
2023-05-05T23:38:14.241Z,100339.10
2023-05-05T23:42:15.985Z,100334.02
2023-05-05T23:46:17.645Z,100330.75
2023-05-05T23:50:19.573Z,100324.20
2023-05-05T23:54:21.240Z,100322.91
2023-05-05T23:58:22.846Z,100320.13
